Terminal Aerodrome Forecast
Issued by NWS

Home | Current Version | Previous Version | Text Only | Print | Product List | Glossary On
Versions: 1 2 3 4 5 6 7 8 9 10 11 12 13 14 15 16 17 18 19 20 21 22 23 24 25
000
FTUS46 KSEW 310600 AAA
TAFHQM
TAF AMD
KHQM 310643Z 3107/0106 25005KT P6SM SCT007 SCT020
      TEMPO 3107/3110 5SM BR BKN007 BKN020
     FM311000 25005KT 5SM BR SCT007 OVC020
     FM311400 16006KT P6SM SCT025 BKN050 BKN120=

USA.gov is the U.S. government's official web portal to all federal, state and local government web resources and services.